Terminal Aerodrome Forecast
Issued by NWS Portland, OR

Home | Current Version | Previous Version | Text Only | Print | Product List | Glossary On
Versions: 1 2 3 4 5 6 7 8 9 10 11 12 13 14 15 16 17 18 19 20 21 22 23 24 25 26 27 28 29 30 31 32 33 34 35 36 37 38 39
000
FTUS46 KPQR 301135
TAFAST
TAF
KAST 301135Z 3012/0112 22004KT 6SM BR OVC007
      TEMPO 3012/3014 5SM BR
     FM301600 30006KT P6SM OVC007
     FM301900 32014G22KT P6SM BKN012
     FM302100 32015G23KT P6SM SCT015
     FM010300 33013G21KT P6SM OVC015
     FM010600 32008KT P6SM OVC015=

USA.gov is the U.S. government's official web portal to all federal, state and local government web resources and services.